Time;durP1;ratioP1;P1;durP2;ratioP2;P2;SDS_P1;SDS_P2;PMS_P1;PMS_P2;Temp;Humidity;BMP_temperature;BMP_pressure;BME280_temperature;BME280_humidity;BME280_pressure;Samples;Min_cycle;Max_cycle;Signal;HPM_P1;HPM_P2
2021/10/02 00:35:22;;;;;;;15.93;7.95;;;;;;;7.88;93.01;97859.50;4965128;28;20073;-62
2021/10/02 00:46:08;;;;;;;15.55;8.38;;;;;;;7.97;91.08;97843.69;4964903;28;20236;-62
2021/10/02 00:48:38;;;;;;;15.13;7.40;;;;;;;7.94;90.37;97849.88;4963371;28;20061;-61
2021/10/02 00:51:07;;;;;;;15.23;7.45;;;;;;;7.85;91.20;97841.66;4965086;28;20058;-61
2021/10/02 00:53:34;;;;;;;15.23;8.13;;;;;;;7.71;91.44;97839.13;4964733;28;20141;-61
2021/10/02 00:56:00;;;;;;;11.23;6.85;;;;;;;7.67;90.17;97838.19;4964525;28;20059;-62
2021/10/02 00:58:29;;;;;;;13.00;7.00;;;;;;;7.74;89.49;97841.22;4963314;28;20050;-61
2021/10/02 01:01:00;;;;;;;13.07;7.13;;;;;;;7.28;89.14;97783.41;4962877;28;20062;-61
2021/10/02 01:04:24;;;;;;;11.02;6.80;;;;;;;7.51;88.49;97836.31;4964845;28;20483;-62
2021/10/02 01:07:02;;;;;;;11.32;6.53;;;;;;;7.50;88.90;97830.00;5003389;28;20057;-62
2021/10/02 01:09:54;;;;;;;14.05;7.10;;;;;;;7.35;89.59;97827.00;5003510;28;20517;-62
2021/10/02 01:12:59;;;;;;;12.55;6.50;;;;;;;6.58;92.04;97741.84;4970393;28;20145;-62
2021/10/02 01:15:34;;;;;;;10.35;7.20;;;;;;;7.02;92.60;97826.75;4965861;28;20063;-62
2021/10/02 01:18:16;;;;;;;12.88;7.30;;;;;;;7.01;93.33;97821.59;4964259;28;20517;-62
2021/10/02 01:21:02;;;;;;;9.75;6.57;;;;;;;7.02;93.21;97815.75;4963191;28;20074;-62
2021/10/02 01:23:53;;;;;;;13.57;6.25;;;;;;;7.10;91.56;97814.91;4963228;28;20065;-63
2021/10/02 01:27:16;;;;;;;10.88;6.50;;;;;;;7.07;92.68;97815.56;4993479;28;20058;-62
2021/10/02 01:29:44;;;;;;;15.20;6.55;;;;;;;7.08;91.58;97817.19;5002014;28;20839;-62
2021/10/02 01:32:24;;;;;;;10.35;7.35;;;;;;;7.07;91.50;97815.56;5001552;28;20571;-61
2021/10/02 01:35:13;;;;;;;12.05;6.78;;;;;;;6.61;91.70;97768.72;5003741;28;20053;-62
2021/10/02 01:48:46;;;;;;;11.93;7.47;;;;;;;6.29;94.19;97743.69;5003180;28;20054;-63
2021/10/02 01:51:15;;;;;;;14.75;7.65;;;;;;;6.86;94.62;97814.66;5002886;28;20061;-62
2021/10/02 01:53:44;;;;;;;12.30;6.85;;;;;;;6.01;93.15;97682.72;5002711;28;20050;-64
2021/10/02 01:56:21;;;;;;;11.40;5.97;;;;;;;6.85;92.55;97815.81;5000942;28;20054;-62
2021/10/02 01:58:49;;;;;;;14.63;7.45;;;;;;;6.91;92.79;97820.00;5002752;28;20062;-65
2021/10/02 02:01:18;;;;;;;11.18;6.47;;;;;;;6.56;91.83;97782.66;5002334;28;20054;-62
2021/10/02 02:03:46;;;;;;;11.15;6.80;;;;;;;6.84;92.29;97816.94;5002752;28;20111;-63
2021/10/02 02:06:15;;;;;;;10.63;7.22;;;;;;;6.91;92.83;97817.25;5002683;28;20046;-63
2021/10/02 02:08:45;;;;;;;14.20;6.93;;;;;;;6.88;93.72;97815.13;5003031;28;20076;-62
2021/10/02 02:11:29;;;;;;;17.98;8.05;;;;;;;6.85;90.51;97807.53;5002125;28;20050;-62
2021/10/02 02:13:58;;;;;;;12.03;6.53;;;;;;;6.88;91.88;97817.91;5000855;28;20069;-62
2021/10/02 02:16:26;;;;;;;11.48;7.00;;;;;;;6.89;91.86;97821.47;5002412;28;20058;-62
2021/10/02 02:18:55;;;;;;;9.90;6.53;;;;;;;6.51;92.21;97785.59;5002515;28;20104;-62
2021/10/02 02:21:25;;;;;;;14.00;6.40;;;;;;;6.75;92.16;97824.38;5002119;28;20050;-62
2021/10/02 02:23:52;;;;;;;10.25;7.22;;;;;;;6.80;93.22;97821.47;5002254;28;20062;-61
2021/10/02 02:26:18;;;;;;;15.35;7.38;;;;;;;6.74;93.30;97822.78;4987833;28;20050;-62
2021/10/02 02:28:45;;;;;;;11.63;5.78;;;;;;;6.84;92.69;97819.69;4982616;28;20050;-61
2021/10/02 02:31:13;;;;;;;14.20;7.03;;;;;;;6.45;92.87;97784.13;4982482;28;20046;-62
2021/10/02 02:33:41;;;;;;;10.32;6.78;;;;;;;6.73;94.16;97821.19;4982709;28;20050;-62
2021/10/02 02:36:07;;;;;;;15.38;7.03;;;;;;;6.78;93.23;97822.94;4982611;28;20517;-62
2021/10/02 02:38:35;;;;;;;14.10;7.63;;;;;;;6.60;92.34;97811.16;4982491;28;20069;-62
2021/10/02 02:41:04;;;;;;;12.18;7.80;;;;;;;6.32;92.07;97804.38;4982804;28;20308;-62
2021/10/02 02:43:35;;;;;;;11.68;7.10;;;;;;;6.47;91.66;97812.13;4982745;28;20050;-61
2021/10/02 02:46:32;;;;;;;13.75;7.57;;;;;;;6.56;92.75;97839.66;4982305;28;20058;-62
2021/10/02 02:49:24;;;;;;;13.13;7.75;;;;;;;5.92;93.54;97732.22;4983510;28;20050;-62
2021/10/02 02:52:05;;;;;;;14.30;7.28;;;;;;;5.69;93.33;97713.44;4982149;28;20059;-61
2021/10/02 02:54:38;;;;;;;13.35;7.68;;;;;;;6.47;94.03;97831.41;4982240;28;20064;-61
2021/10/02 02:57:10;;;;;;;;;;;;;;;6.50;94.90;97836.25;4982936;28;20578;-61
2021/10/02 03:00:06;;;;;;;12.85;7.63;;;;;;;6.51;95.96;97835.13;4981104;28;19925;-62
2021/10/02 03:02:36;;;;;;;17.02;7.85;;;;;;;6.13;94.79;97823.16;4981754;28;20057;-63
2021/10/02 03:05:05;;;;;;;13.52;7.47;;;;;;;6.47;94.90;97836.91;4982167;28;20058;-61
2021/10/02 03:07:37;;;;;;;18.17;7.85;;;;;;;6.42;94.77;97852.78;4982150;28;20414;-61
2021/10/02 03:10:04;;;;;;;13.63;6.80;;;;;;;6.31;93.71;97837.72;4982098;28;20064;-63
2021/10/02 03:12:37;;;;;;;13.65;7.80;;;;;;;6.00;96.23;97830.41;4980454;28;20516;-64
2021/10/02 03:15:05;;;;;;;11.43;7.78;;;;;;;5.99;95.99;97847.25;4981828;28;20065;-63
2021/10/02 03:17:32;;;;;;;16.58;8.77;;;;;;;6.03;96.02;97842.69;4982548;28;20497;-62
2021/10/02 03:20:00;;;;;;;18.35;9.73;;;;;;;6.16;95.00;97850.00;4982329;28;20064;-62
2021/10/02 03:22:28;;;;;;;15.40;8.77;;;;;;;5.54;95.78;97744.13;4980955;28;20505;-62
2021/10/02 03:24:56;;;;;;;10.65;6.78;;;;;;;3.69;97.55;97440.34;4982845;28;20580;-63
2021/10/02 03:27:26;;;;;;;12.70;7.03;;;;;;;6.25;96.10;97848.06;5001292;28;20059;-64
2021/10/02 03:29:54;;;;;;;14.05;7.03;;;;;;;6.09;96.28;97827.66;5000978;28;20061;-61
2021/10/02 03:32:23;;;;;;;22.30;7.43;;;;;;;6.27;96.67;97851.31;5001319;28;20046;-61
2021/10/02 03:34:52;;;;;;;12.18;6.38;;;;;;;6.19;94.50;97849.34;5001429;28;20050;-62
2021/10/02 03:37:20;;;;;;;12.70;6.35;;;;;;;5.72;94.23;97773.25;5001589;28;20428;-62
2021/10/02 03:39:47;;;;;;;12.23;7.15;;;;;;;6.16;95.51;97852.75;5001092;28;20056;-62
2021/10/02 03:42:18;;;;;;;19.15;7.72;;;;;;;6.18;96.04;97847.72;5000778;28;20598;-61
2021/10/02 03:44:46;;;;;;;14.40;7.50;;;;;;;6.24;95.14;97851.97;5000896;28;20061;-61
2021/10/02 03:47:14;;;;;;;12.15;6.88;;;;;;;6.09;95.58;97855.97;5000792;28;20161;-61
2021/10/02 03:49:42;;;;;;;13.25;7.28;;;;;;;6.03;94.44;97834.44;5001262;28;20308;-62
2021/10/02 03:52:10;;;;;;;17.30;7.72;;;;;;;5.39;94.04;97722.59;4999361;28;20064;-61
2021/10/02 03:54:37;;;;;;;13.93;8.38;;;;;;;6.04;93.41;97852.56;5001083;28;20057;-61
2021/10/02 03:57:04;;;;;;;17.85;10.70;;;;;;;5.96;93.90;97848.66;5001137;28;20054;-61
2021/10/02 03:59:31;;;;;;;15.40;8.52;;;;;;;5.89;95.63;97844.78;4999836;28;20064;-61
2021/10/02 04:01:58;;;;;;;16.33;7.82;;;;;;;5.87;95.73;97836.03;5000717;28;20461;-60
2021/10/02 04:04:25;;;;;;;10.88;7.13;;;;;;;5.91;93.97;97861.78;5000989;28;20057;-62
2021/10/02 04:06:52;;;;;;;11.23;6.40;;;;;;;5.39;94.83;97786.56;5000376;28;20049;-60
2021/10/02 04:09:19;;;;;;;13.70;7.55;;;;;;;5.68;96.58;97855.53;5000701;28;20406;-60
2021/10/02 04:11:46;;;;;;;16.88;7.78;;;;;;;5.40;96.37;97812.13;4999581;28;20061;-63
2021/10/02 04:14:14;;;;;;;21.80;9.93;;;;;;;5.77;96.33;97863.81;5001069;28;20061;-61
2021/10/02 04:16:41;;;;;;;13.52;7.93;;;;;;;5.80;96.31;97857.69;5000442;28;20058;-63
2021/10/02 04:19:08;;;;;;;17.20;7.63;;;;;;;5.78;96.81;97851.69;5000199;28;20581;-63
2021/10/02 04:21:34;;;;;;;21.52;10.23;;;;;;;5.10;94.18;97777.28;5000313;28;20064;-61
2021/10/02 04:24:01;;;;;;;16.70;8.93;;;;;;;5.67;93.47;97847.59;5000439;28;20060;-63
2021/10/02 04:26:28;;;;;;;22.17;11.60;;;;;;;5.73;93.06;97851.81;4984217;28;20050;-61
2021/10/02 04:28:54;;;;;;;27.80;14.05;;;;;;;5.61;94.66;97859.88;4981219;28;20053;-62
2021/10/02 04:31:21;;;;;;;24.65;12.73;;;;;;;5.62;94.69;97850.50;4981478;28;20448;-61
2021/10/02 04:33:48;;;;;;;20.17;11.82;;;;;;;5.29;97.82;97813.53;4979566;28;20055;-62
2021/10/02 04:36:15;;;;;;;18.70;11.82;;;;;;;5.35;95.86;97817.75;4980732;28;20443;-62
2021/10/02 04:38:43;;;;;;;19.20;11.73;;;;;;;5.65;97.36;97858.09;4979449;28;20523;-62
2021/10/02 04:41:10;;;;;;;19.70;11.88;;;;;;;5.78;95.14;97851.69;4980893;28;20119;-63
2021/10/02 04:43:41;;;;;;;24.13;10.65;;;;;;;5.61;95.68;97835.16;4981081;28;20050;-61
2021/10/02 04:46:12;;;;;;;23.63;12.57;;;;;;;5.66;94.89;97840.47;4981019;28;20056;-63
2021/10/02 04:48:40;;;;;;;23.02;10.65;;;;;;;5.87;94.91;97860.78;4979902;28;20084;-61
2021/10/02 04:51:08;;;;;;;17.65;9.05;;;;;;;5.69;95.11;97823.38;4981801;28;20062;-61
2021/10/02 04:53:36;;;;;;;14.55;8.57;;;;;;;5.95;94.91;97855.31;4982734;28;20535;-63
2021/10/02 04:56:07;;;;;;;17.10;8.52;;;;;;;6.05;95.36;97854.19;4984186;28;20054;-62
2021/10/02 04:58:34;;;;;;;21.45;11.35;;;;;;;5.70;95.20;97814.81;4984135;28;20500;-62
2021/10/02 05:01:03;;;;;;;21.10;10.93;;;;;;;6.19;94.56;97863.13;4983588;28;20050;-63
2021/10/02 05:03:36;;;;;;;14.95;8.45;;;;;;;6.26;93.08;97866.19;4982189;28;20563;-62
2021/10/02 05:06:04;;;;;;;15.82;9.45;;;;;;;5.97;93.31;97816.50;4983508;28;20054;-62
2021/10/02 05:08:32;;;;;;;17.75;9.65;;;;;;;6.33;92.53;97866.53;4982543;28;20140;-65
2021/10/02 05:10:59;;;;;;;13.75;8.05;;;;;;;6.48;91.67;97870.75;4983888;28;20057;-61
2021/10/02 05:13:27;;;;;;;15.52;9.02;;;;;;;6.18;91.76;97836.72;4983643;28;20058;-61
2021/10/02 05:15:54;;;;;;;18.08;9.25;;;;;;;6.66;91.24;97870.41;4983615;28;20081;-60
2021/10/02 05:18:21;;;;;;;16.10;7.57;;;;;;;6.82;91.05;97870.72;4983454;28;20054;-63
2021/10/02 05:20:48;;;;;;;12.98;7.30;;;;;;;6.70;90.74;97832.03;4983566;28;20050;-62
2021/10/02 05:23:15;;;;;;;18.30;8.93;;;;;;;7.14;90.29;97865.47;4983496;28;20478;-61
2021/10/02 05:25:41;;;;;;;15.77;7.68;;;;;;;7.42;89.48;97863.09;4990971;28;20046;-63
2021/10/02 05:28:08;;;;;;;16.85;9.05;;;;;;;7.59;86.99;97863.84;5003457;28;20061;-62
2021/10/02 05:30:35;;;;;;;14.55;8.98;;;;;;;7.71;86.94;97863.94;5002901;28;20050;-62
2021/10/02 05:33:03;;;;;;;16.80;9.00;;;;;;;7.93;86.46;97859.31;5002938;28;20054;-61
2021/10/02 05:35:32;;;;;;;13.80;8.02;;;;;;;8.13;86.43;97859.34;5002320;28;20061;-61
2021/10/02 05:38:00;;;;;;;16.98;8.05;;;;;;;8.03;85.82;97887.31;4968815;28;20055;-63
2021/10/02 05:40:27;;;;;;;15.10;7.88;;;;;;;8.04;86.41;97811.69;4977796;28;20046;-66
2021/10/02 05:42:54;;;;;;;11.63;7.10;;;;;;;8.27;85.06;97817.72;4982586;28;20158;-63
2021/10/02 05:45:21;;;;;;;10.70;6.78;;;;;;;5.28;83.82;97342.28;4972269;28;20054;-66
2021/10/02 05:47:48;;;;;;;17.17;7.65;;;;;;;8.74;85.38;97857.78;4983226;28;20315;-61
2021/10/02 05:50:15;;;;;;;16.50;9.48;;;;;;;8.78;82.67;97831.06;4978262;28;20510;-69
2021/10/02 05:52:42;;;;;;;14.20;9.23;;;;;;;9.17;82.16;97858.16;4962294;28;20110;-68
2021/10/02 05:55:10;;;;;;;24.55;12.52;;;;;;;9.20;81.76;97857.47;5063230;28;20058;-63
2021/10/02 05:57:37;;;;;;;28.98;13.27;;;;;;;9.38;82.20;97853.38;4976209;28;20054;-70
2021/10/02 06:00:07;;;;;;;12.18;7.30;;;;;;;9.29;81.28;97825.03;4982807;28;20046;-62
2021/10/02 06:02:34;;;;;;;9.38;6.13;;;;;;;9.29;80.33;97772.50;4981556;28;20567;-69
2021/10/02 06:05:02;;;;;;;13.93;5.78;;;;;;;9.82;79.59;97827.59;4982461;28;20564;-70
2021/10/02 06:07:29;;;;;;;11.50;6.25;;;;;;;9.80;79.54;97807.75;4982612;28;20056;-68
2021/10/02 06:09:56;;;;;;;10.70;5.18;;;;;;;10.15;79.59;97850.44;4982826;28;20465;-69
2021/10/02 06:12:22;;;;;;;14.40;6.30;;;;;;;10.29;79.32;97850.88;4983254;28;20137;-65
2021/10/02 06:14:49;;;;;;;10.30;6.55;;;;;;;10.11;78.74;97824.63;4982639;28;20046;-64
2021/10/02 06:17:16;;;;;;;12.07;6.03;;;;;;;10.38;78.20;97817.50;4981030;28;20054;-64
2021/10/02 06:19:42;;;;;;;12.10;7.43;;;;;;;10.67;77.98;97854.00;4982760;28;20413;-69
2021/10/02 06:22:09;;;;;;;9.05;6.47;;;;;;;8.95;77.59;97532.50;4982632;28;20054;-70
2021/10/02 06:24:37;;;;;;;15.85;6.40;;;;;;;11.15;76.24;97853.00;4982200;28;20081;-68
2021/10/02 06:27:04;;;;;;;12.57;6.95;;;;;;;11.36;75.41;97852.78;4998778;28;20054;-63
2021/10/02 06:29:31;;;;;;;13.23;6.75;;;;;;;11.22;75.20;97819.94;4986581;28;20058;-63
2021/10/02 06:31:57;;;;;;;18.13;7.82;;;;;;;11.12;74.25;97750.31;4971804;28;20064;-64
2021/10/02 06:34:24;;;;;;;21.98;9.82;;;;;;;11.76;73.69;97831.28;4977980;28;20069;-67
2021/10/02 06:36:51;;;;;;;9.90;6.05;;;;;;;12.23;71.31;97843.13;4980685;28;20069;-60
2021/10/02 06:39:17;;;;;;;15.63;6.40;;;;;;;11.95;70.63;97775.78;4977861;28;20565;-66
2021/10/02 06:41:44;;;;;;;8.85;5.75;;;;;;;10.97;69.90;97593.13;4962902;28;20051;-61
2021/10/02 06:44:11;;;;;;;12.82;6.28;;;;;;;12.77;69.55;97852.28;4967516;28;20486;-62
2021/10/02 06:46:38;;;;;;;14.25;6.80;;;;;;;13.11;67.99;97845.88;4969252;28;20058;-62
2021/10/02 06:49:05;;;;;;;11.80;5.80;;;;;;;11.95;66.26;97634.19;4969869;28;20545;-60
2021/10/02 06:51:32;;;;;;;17.63;5.88;;;;;;;13.49;64.01;97851.41;4980297;28;20050;-74
2021/10/02 06:53:59;;;;;;;9.88;4.90;;;;;;;13.61;62.28;97840.06;4971087;28;20053;-60
2021/10/02 06:56:25;;;;;;;11.20;5.30;;;;;;;13.83;60.37;97837.66;4967022;28;20054;-61
2021/10/02 06:58:52;;;;;;;7.65;3.85;;;;;;;13.08;56.77;97696.41;4971841;28;20259;-59
2021/10/02 07:01:19;;;;;;;7.38;3.30;;;;;;;13.80;55.44;97794.63;4977860;28;20055;-69
2021/10/02 07:03:46;;;;;;;6.20;3.25;;;;;;;14.29;53.13;97834.47;4963717;28;20498;-67
2021/10/02 07:06:13;;;;;;;5.00;2.85;;;;;;;14.52;51.82;97831.63;4962873;28;20595;-60
2021/10/02 07:08:39;;;;;;;6.18;2.97;;;;;;;14.29;52.41;97786.28;4962390;28;20498;-59
2021/10/02 07:11:07;;;;;;;4.20;2.83;;;;;;;14.38;52.00;97793.19;4969147;28;20061;-70
2021/10/02 07:13:34;;;;;;;4.95;2.80;;;;;;;14.66;52.19;97803.91;4970022;28;20403;-69
2021/10/02 07:16:00;;;;;;;6.18;3.28;;;;;;;15.07;50.69;97825.16;4967613;28;20050;-62
2021/10/02 07:18:27;;;;;;;8.27;4.00;;;;;;;15.14;50.90;97822.47;5009121;28;20195;-62
2021/10/02 07:20:54;;;;;;;7.82;3.25;;;;;;;15.24;52.07;97824.56;4969981;28;20047;-60
2021/10/02 07:23:20;;;;;;;8.45;3.60;;;;;;;14.93;52.21;97841.75;4968785;28;20073;-63
2021/10/02 07:25:48;;;;;;;6.78;2.58;;;;;;;13.82;51.59;97669.75;4967226;28;20051;-60
2021/10/02 07:28:15;;;;;;;4.70;2.78;;;;;;;14.47;49.78;97751.09;4976491;28;20054;-61
2021/10/02 07:30:41;;;;;;;4.00;2.70;;;;;;;14.73;49.59;97798.44;4974880;28;20051;-66
2021/10/02 07:33:08;;;;;;;7.72;2.90;;;;;;;15.26;50.15;97822.22;4966724;28;20069;-67
2021/10/02 07:35:35;;;;;;;6.70;3.13;;;;;;;14.53;50.38;97693.81;4961284;28;20046;-66
2021/10/02 07:38:02;;;;;;;8.15;3.67;;;;;;;14.86;49.05;97750.38;4961773;28;20584;-60
2021/10/02 07:40:29;;;;;;;10.68;3.30;;;;;;;14.57;50.69;97767.16;4962215;28;20064;-67
2021/10/02 07:42:57;;;;;;;5.65;2.95;;;;;;;14.50;50.28;97833.97;4962118;28;20058;-67
2021/10/02 07:45:26;;;;;;;10.70;4.13;;;;;;;14.85;49.97;97817.72;4962090;28;20051;-66
2021/10/02 07:47:55;;;;;;;16.55;5.03;;;;;;;14.62;49.28;97764.06;4961336;28;20058;-66
2021/10/02 07:50:23;;;;;;;10.15;4.28;;;;;;;15.24;49.75;97835.72;4961603;28;20078;-60
2021/10/02 07:52:54;;;;;;;6.00;2.63;;;;;;;15.20;48.50;97779.06;5060714;28;20467;-60
2021/10/02 07:55:22;;;;;;;8.07;3.72;;;;;;;14.97;48.10;97711.44;4961604;28;20540;-60
2021/10/02 07:57:49;;;;;;;13.13;5.68;;;;;;;15.38;47.28;97796.84;5060677;28;20464;-65
2021/10/02 08:00:18;;;;;;;3.38;2.13;;;;;;;15.84;47.62;97814.84;4961636;28;20517;-60
2021/10/02 08:02:49;;;;;;;9.07;2.47;;;;;;;15.75;47.59;97766.88;4961785;28;20054;-67
2021/10/02 08:05:17;;;;;;;5.72;1.95;;;;;;;15.64;45.99;97813.47;4962009;28;20055;-66
2021/10/02 08:07:46;;;;;;;14.63;4.55;;;;;;;15.03;47.08;97815.97;4961673;28;20444;-68
2021/10/02 08:10:15;;;;;;;9.15;3.90;;;;;;;15.45;46.70;97819.25;4961760;28;20082;-65
2021/10/02 08:12:42;;;;;;;8.20;3.00;;;;;;;14.74;46.77;97761.00;4961835;28;20523;-67
2021/10/02 08:15:10;;;;;;;5.22;2.33;;;;;;;15.34;44.72;97809.94;4961857;28;20061;-61
2021/10/02 08:17:40;;;;;;;4.80;2.13;;;;;;;15.51;44.99;97773.03;4961403;28;20059;-69
2021/10/02 08:20:16;;;;;;;5.00;2.25;;;;;;;16.15;46.21;97814.31;5060816;28;20057;-59
2021/10/02 08:22:46;;;;;;;5.60;2.28;;;;;;;16.28;44.32;97812.78;4961867;28;20063;-59
2021/10/02 08:25:14;;;;;;;9.90;2.50;;;;;;;16.72;43.51;97811.91;4962747;28;20059;-59
2021/10/02 08:27:43;;;;;;;7.72;2.30;;;;;;;16.84;43.99;97817.16;4993686;28;20065;-60
2021/10/02 08:30:11;;;;;;;5.35;2.28;;;;;;;16.99;43.62;97802.03;5003223;28;20136;-61
2021/10/02 08:32:38;;;;;;;5.63;2.33;;;;;;;17.08;43.33;97805.25;5002875;28;20050;-61
2021/10/02 08:35:07;;;;;;;5.10;2.00;;;;;;;17.30;42.88;97812.53;4982098;28;20051;-60
2021/10/02 08:37:34;;;;;;;6.25;3.03;;;;;;;17.11;42.08;97754.88;4982571;28;20059;-60
2021/10/02 08:40:03;;;;;;;6.00;2.38;;;;;;;17.37;43.37;97790.16;4983611;28;20054;-62
2021/10/02 08:42:30;;;;;;;4.88;2.40;;;;;;;16.66;42.72;97779.91;4984216;28;20046;-62
2021/10/02 08:44:58;;;;;;;5.25;2.33;;;;;;;16.51;43.22;97805.00;4983939;28;20050;-64
2021/10/02 08:47:25;;;;;;;4.85;2.60;;;;;;;16.56;43.84;97793.44;4982592;28;20054;-61
2021/10/02 08:49:53;;;;;;;6.13;2.20;;;;;;;16.73;42.26;97774.31;4983617;28;20065;-61
2021/10/02 08:52:22;;;;;;;7.32;2.50;;;;;;;17.00;42.71;97792.44;4983813;28;20064;-60
2021/10/02 08:54:50;;;;;;;4.20;2.35;;;;;;;16.76;42.44;97706.38;4979008;28;20486;-61
2021/10/02 08:57:20;;;;;;;8.38;2.25;;;;;;;17.43;42.49;97799.78;4970134;28;20051;-65
2021/10/02 08:59:49;;;;;;;4.43;2.47;;;;;;;17.30;41.48;97756.53;4978315;28;20061;-61
2021/10/02 09:02:16;;;;;;;5.47;2.30;;;;;;;16.78;42.22;97734.78;4971195;28;20059;-60
2021/10/02 09:04:44;;;;;;;6.97;3.42;;;;;;;17.14;41.54;97756.09;4970937;28;20046;-64
2021/10/02 09:07:12;;;;;;;6.45;3.38;;;;;;;17.01;41.84;97754.88;5006513;28;20137;-62
2021/10/02 09:09:39;;;;;;;8.00;3.35;;;;;;;17.06;42.40;97786.06;4967522;28;20051;-65
2021/10/02 09:12:06;;;;;;;5.07;1.90;;;;;;;17.01;41.13;97740.88;4964764;28;20043;-64
2021/10/02 09:14:34;;;;;;;5.30;2.20;;;;;;;17.19;41.81;97772.50;4978817;28;20046;-63
2021/10/02 09:17:01;;;;;;;3.67;2.20;;;;;;;16.78;41.03;97639.63;4978280;28;20066;-62
2021/10/02 09:19:29;;;;;;;5.97;2.30;;;;;;;17.50;40.36;97752.19;4977330;28;20051;-62
2021/10/02 09:22:04;;;;;;;5.38;2.33;;;;;;;17.58;40.66;97779.00;4983831;28;20046;-61
2021/10/02 09:24:34;;;;;;;4.32;1.83;;;;;;;17.02;40.75;97711.66;4983537;28;20080;-62
2021/10/02 09:27:02;;;;;;;5.43;1.92;;;;;;;16.80;40.49;97771.56;4980345;28;20050;-60
2021/10/02 09:29:41;;;;;;;4.35;2.38;;;;;;;16.53;41.79;97757.84;4973057;28;20054;-66
2021/10/02 09:32:20;;;;;;;5.85;2.08;;;;;;;17.07;41.71;97764.47;4977309;28;20057;-65
2021/10/02 09:34:52;;;;;;;3.03;2.13;;;;;;;16.78;40.67;97656.44;4989759;28;20608;-66
2021/10/02 09:37:33;;;;;;;6.22;2.72;;;;;;;17.26;41.39;97727.72;4975401;28;20081;-66
2021/10/02 09:40:07;;;;;;;8.68;3.28;;;;;;;17.63;41.52;97720.59;4963887;28;20062;-60
2021/10/02 09:42:39;;;;;;;9.27;3.40;;;;;;;17.89;40.69;97761.44;4978519;28;20134;-63
2021/10/02 09:45:09;;;;;;;10.68;3.42;;;;;;;17.93;41.26;97756.59;5035791;28;20046;-61
2021/10/02 09:47:38;;;;;;;4.75;2.63;;;;;;;17.59;40.95;97749.81;4983059;28;20058;-63
2021/10/02 09:50:08;;;;;;;8.75;2.60;;;;;;;16.77;42.13;97713.59;4982633;28;20054;-62
2021/10/02 09:52:38;;;;;;;5.63;2.28;;;;;;;16.99;41.85;97713.28;4982755;28;20058;-62
2021/10/02 09:55:37;;;;;;;3.88;2.17;;;;;;;17.82;41.63;97741.78;4978922;28;20436;-60
2021/10/02 09:58:09;;;;;;;9.18;2.97;;;;;;;17.49;41.01;97663.75;4971971;28;20051;-62
2021/10/02 10:00:38;;;;;;;11.27;4.25;;;;;;;18.03;40.27;97716.56;4963809;28;20430;-60
2021/10/02 10:03:08;;;;;;;17.17;4.45;;;;;;;18.49;40.05;97734.13;4997110;28;20406;-60
2021/10/02 10:05:40;;;;;;;6.45;2.53;;;;;;;18.77;39.53;97727.59;4976860;28;20058;-62
2021/10/02 10:08:10;;;;;;;6.60;2.08;;;;;;;18.90;38.51;97732.38;4975999;28;20050;-71
2021/10/02 10:10:42;;;;;;;7.78;2.65;;;;;;;18.86;39.38;97733.56;4978246;28;20054;-68
2021/10/02 10:13:21;;;;;;;5.20;2.05;;;;;;;18.96;39.39;97719.50;4977160;28;20500;-68
2021/10/02 10:15:53;;;;;;;6.68;2.03;;;;;;;17.80;39.94;97735.78;4982402;28;20058;-64
2021/10/02 10:18:34;;;;;;;3.88;1.85;;;;;;;18.09;39.36;97686.91;4974134;28;20047;-62
2021/10/02 10:21:04;;;;;;;4.70;2.35;;;;;;;17.75;39.09;97722.97;5002071;28;20146;-62
2021/10/02 10:23:33;;;;;;;4.15;2.40;;;;;;;17.74;39.71;97721.38;4966078;28;20050;-69
2021/10/02 10:26:21;;;;;;;3.33;2.13;;;;;;;18.35;39.31;97722.09;4983573;28;20043;-62
2021/10/02 10:28:49;;;;;;;3.85;2.10;;;;;;;18.31;38.99;97708.09;4977595;28;20058;-64
2021/10/02 10:31:26;;;;;;;5.70;2.50;;;;;;;18.13;39.11;97640.81;4976994;28;20379;-60
2021/10/02 10:33:55;;;;;;;3.13;2.08;;;;;;;18.64;39.09;97685.16;4978924;28;20107;-63
2021/10/02 10:36:24;;;;;;;3.55;2.22;;;;;;;17.47;40.90;97708.16;4986588;28;20228;-68
2021/10/02 10:38:51;;;;;;;6.60;2.63;;;;;;;17.65;40.85;97723.78;4984839;28;20054;-65
2021/10/02 10:41:21;;;;;;;2.58;1.75;;;;;;;17.36;41.40;97707.31;4992710;28;20494;-67
2021/10/02 10:43:48;;;;;;;2.97;1.92;;;;;;;17.21;41.38;97677.72;4984031;28;20058;-67
2021/10/02 10:46:19;;;;;;;2.90;1.83;;;;;;;15.24;39.94;97244.00;4983773;28;20061;-65
2021/10/02 10:48:46;;;;;;;6.72;1.90;;;;;;;18.23;39.95;97630.78;4996202;28;20054;-61
2021/10/02 10:51:15;;;;;;;10.18;3.42;;;;;;;18.74;39.60;97656.25;5001180;28;20062;-62
2021/10/02 10:53:44;;;;;;;4.80;2.45;;;;;;;18.27;37.98;97628.78;5001015;28;20054;-67
2021/10/02 10:56:15;;;;;;;2.47;1.80;;;;;;;18.06;39.09;97721.34;5001471;28;20521;-67
2021/10/02 10:58:43;;;;;;;6.63;2.03;;;;;;;17.92;39.91;97704.56;5000766;28;20521;-66
2021/10/02 11:01:32;;;;;;;4.13;2.10;;;;;;;18.57;39.56;97690.81;5002391;28;20062;-66
2021/10/02 11:03:59;;;;;;;4.10;2.28;;;;;;;18.95;39.39;97681.38;4987553;28;20498;-62
2021/10/02 11:06:50;;;;;;;6.97;2.35;;;;;;;19.31;38.17;97679.19;4984851;28;20372;-62
2021/10/02 11:09:37;;;;;;;3.28;2.20;;;;;;;18.87;37.82;97637.72;5000839;28;20504;-62
2021/10/02 11:12:09;;;;;;;7.90;3.78;;;;;;;19.07;38.76;97666.88;5016402;28;20049;-63
2021/10/02 11:14:48;;;;;;;5.32;3.60;;;;;;;19.38;38.78;97677.13;4995456;28;20054;-59
2021/10/02 11:17:33;;;;;;;4.45;2.65;;;;;;;19.28;38.07;97641.47;4987966;28;20050;-60
2021/10/02 11:20:18;;;;;;;8.10;2.47;;;;;;;19.48;37.33;97672.63;4997384;28;20156;-61
2021/10/02 11:23:22;;;;;;;4.45;2.15;;;;;;;19.58;37.39;97669.72;4992425;28;20061;-61
2021/10/02 11:26:14;;;;;;;7.22;3.20;;;;;;;19.29;38.20;97572.84;4989105;28;20069;-64
2021/10/02 11:28:41;;;;;;;4.03;2.85;;;;;;;19.45;37.99;97580.72;5000897;28;20549;-67
2021/10/02 11:31:22;;;;;;;6.13;2.40;;;;;;;19.32;36.38;97541.09;5001113;28;20053;-64
2021/10/02 11:33:57;;;;;;;6.05;2.25;;;;;;;19.96;36.70;97633.22;5001098;28;20634;-68
2021/10/02 11:36:32;;;;;;;6.05;2.28;;;;;;;20.29;36.67;97655.00;5001232;28;20064;-64
2021/10/02 11:39:13;;;;;;;6.35;2.42;;;;;;;20.24;36.78;97661.09;4998830;28;20050;-66
2021/10/02 11:41:57;;;;;;;6.13;2.75;;;;;;;19.30;37.13;97514.66;5037351;28;20057;-68
2021/10/02 11:44:33;;;;;;;5.55;2.63;;;;;;;20.04;36.49;97660.06;5082077;27;20067;-67
2021/10/02 11:47:26;;;;;;;3.92;2.42;;;;;;;20.14;36.91;97653.59;4998092;28;20151;-68
2021/10/02 11:50:08;;;;;;;8.55;3.20;;;;;;;20.34;35.62;97648.91;4994271;28;20093;-69
2021/10/02 11:52:55;;;;;;;3.42;2.50;;;;;;;20.31;35.50;97646.94;4998945;28;20064;-68
2021/10/02 11:55:38;;;;;;;7.20;2.53;;;;;;;20.31;35.52;97641.31;5004051;28;20061;-68
2021/10/02 11:58:08;;;;;;;8.65;2.42;;;;;;;20.42;35.39;97636.38;4988393;28;20482;-66
2021/10/02 12:00:44;;;;;;;5.03;2.97;;;;;;;20.19;35.98;97639.03;4980861;28;20061;-68
2021/10/02 12:03:12;;;;;;;2.90;2.08;;;;;;;20.48;36.50;97634.69;4995117;28;20410;-71
2021/10/02 12:06:02;;;;;;;6.13;2.63;;;;;;;20.71;35.31;97626.31;5062021;28;20133;-70
2021/10/02 12:08:30;;;;;;;2.83;2.20;;;;;;;19.97;36.41;97626.38;4998353;28;20130;-64
2021/10/02 12:11:07;;;;;;;5.80;2.72;;;;;;;19.42;37.64;97630.13;4991945;28;20142;-63
2021/10/02 12:13:39;;;;;;;6.15;2.55;;;;;;;19.71;36.95;97613.81;4991342;28;20058;-64
2021/10/02 12:16:13;;;;;;;6.25;2.25;;;;;;;19.40;36.00;97632.56;5003568;28;20090;-61
2021/10/02 12:18:48;;;;;;;2.05;1.80;;;;;;;18.38;37.38;97597.84;5085919;28;20067;-62
2021/10/02 12:21:32;;;;;;;4.07;2.17;;;;;;;17.04;37.77;97283.81;5083326;28;20123;-63
2021/10/02 12:24:08;;;;;;;6.57;2.78;;;;;;;18.96;38.00;97629.63;5086736;28;20062;-61
2021/10/02 12:26:48;;;;;;;6.75;3.03;;;;;;;19.49;37.68;97629.25;5086323;28;20054;-60
2021/10/02 12:29:18;;;;;;;4.85;2.40;;;;;;;19.78;36.85;97624.16;5086723;28;20530;-62
2021/10/02 12:31:48;;;;;;;5.90;2.53;;;;;;;20.03;36.91;97630.34;5086151;28;20060;-61
2021/10/02 12:34:25;;;;;;;7.18;2.30;;;;;;;20.37;35.98;97622.75;5085685;28;20491;-60
2021/10/02 12:37:16;;;;;;;5.32;2.30;;;;;;;20.33;36.33;97622.78;5086659;28;20063;-60
2021/10/02 12:39:52;;;;;;;57.42;5.80;;;;;;;20.57;36.11;97620.88;5079548;27;21241;-63
2021/10/02 12:42:40;;;;;;;4.53;3.00;;;;;;;20.60;36.34;97620.03;5086178;28;20434;-65
2021/10/02 12:45:14;;;;;;;3.92;2.30;;;;;;;20.65;35.88;97622.38;5085902;28;20044;-66